createdAt,value
2023-02-28T00:01:34.852Z,1.49
2023-02-28T00:04:02.282Z,1.49
2023-02-28T00:06:29.346Z,1.47
2023-02-28T00:08:56.467Z,1.45
2023-02-28T00:11:23.754Z,1.44
2023-02-28T00:13:50.912Z,1.47
2023-02-28T00:16:22.250Z,1.47
2023-02-28T00:18:50.197Z,1.48
2023-02-28T00:21:19.321Z,1.48
2023-02-28T00:23:46.450Z,1.44
2023-02-28T00:26:13.935Z,1.43
2023-02-28T00:28:44.962Z,1.38
2023-02-28T00:31:12.057Z,1.39
2023-02-28T00:33:39.032Z,1.37
2023-02-28T00:36:10.444Z,1.38
2023-02-28T00:38:39.546Z,1.35
2023-02-28T00:41:08.106Z,1.34
2023-02-28T00:43:37.983Z,1.34
2023-02-28T00:46:05.556Z,1.32
2023-02-28T00:48:33.072Z,1.30
2023-02-28T00:51:00.822Z,1.31
2023-02-28T00:53:28.188Z,1.25
2023-02-28T00:55:58.349Z,1.22
2023-02-28T00:58:26.588Z,1.20
2023-02-28T01:00:54.727Z,1.25
2023-02-28T01:03:23.534Z,1.21
2023-02-28T01:05:50.903Z,1.23
2023-02-28T01:08:18.231Z,1.18
2023-02-28T01:10:45.347Z,1.17
2023-02-28T01:13:13.993Z,1.18
2023-02-28T01:15:52.067Z,1.15
2023-02-28T01:18:20.692Z,1.15
2023-02-28T01:20:48.182Z,1.16
2023-02-28T01:23:16.803Z,1.08
2023-02-28T01:25:43.778Z,1.08
2023-02-28T01:28:10.914Z,1.03
2023-02-28T01:30:37.935Z,1.03
2023-02-28T01:33:04.943Z,1.00
2023-02-28T01:35:36.733Z,0.94
2023-02-28T01:38:20.579Z,0.91
2023-02-28T01:40:48.140Z,0.80
2023-02-28T01:43:44.039Z,0.75
2023-02-28T01:46:14.653Z,0.66
2023-02-28T01:48:54.585Z,0.62
2023-02-28T01:51:35.945Z,0.51
2023-02-28T01:54:14.459Z,0.42
2023-02-28T01:56:48.908Z,0.35
2023-02-28T01:59:28.568Z,0.26
2023-02-28T02:01:56.452Z,0.21
2023-02-28T02:04:27.445Z,0.15
2023-02-28T02:06:55.017Z,0.08
2023-02-28T02:09:21.926Z,0.03
2023-02-28T02:11:48.939Z,-0.01
2023-02-28T02:14:44.748Z,-0.10
2023-02-28T02:17:49.604Z,-0.15
2023-02-28T02:21:01.164Z,-0.22
2023-02-28T02:24:43.315Z,-0.34
2023-02-28T02:27:47.018Z,-0.42
2023-02-28T02:30:32.581Z,-0.49
2023-02-28T02:33:17.581Z,-0.53
2023-02-28T02:36:26.690Z,-0.62
2023-02-28T02:39:05.576Z,-0.64
2023-02-28T02:41:47.242Z,-0.69
2023-02-28T02:44:39.802Z,-0.75
2023-02-28T02:47:13.039Z,-0.81
2023-02-28T02:49:46.918Z,-0.87
2023-02-28T02:52:18.690Z,-0.89
2023-02-28T02:54:49.249Z,-0.93
2023-02-28T02:57:35.231Z,-0.93
2023-02-28T03:00:06.157Z,-1.00
2023-02-28T03:02:34.840Z,-1.00
2023-02-28T03:05:09.710Z,-1.06
2023-02-28T03:07:37.709Z,-1.08
2023-02-28T03:10:38.791Z,-1.11
2023-02-28T03:13:47.521Z,-1.17
2023-02-28T03:16:34.804Z,-1.18
2023-02-28T03:19:39.265Z,-1.22
2023-02-28T03:22:34.209Z,-1.27
2023-02-28T03:25:12.886Z,-1.29
2023-02-28T03:28:06.871Z,-1.32
2023-02-28T03:31:17.324Z,-1.36
2023-02-28T03:33:56.069Z,-1.38
2023-02-28T03:36:31.989Z,-1.39
2023-02-28T03:39:08.257Z,-1.42
2023-02-28T03:42:19.465Z,-1.43
2023-02-28T03:44:59.366Z,-1.48
2023-02-28T03:47:34.167Z,-1.52
2023-02-28T03:50:14.054Z,-1.55
2023-02-28T03:52:49.924Z,-1.56
2023-02-28T03:55:18.935Z,-1.58
2023-02-28T03:58:21.642Z,-1.59
2023-02-28T04:00:56.763Z,-1.64
2023-02-28T04:03:24.333Z,-1.64
2023-02-28T04:05:55.642Z,-1.67
2023-02-28T04:08:23.925Z,-1.68
2023-02-28T04:11:05.679Z,-1.69
2023-02-28T04:13:32.642Z,-1.70
2023-02-28T04:15:59.850Z,-1.72
2023-02-28T04:18:26.769Z,-1.74
2023-02-28T04:20:53.803Z,-1.74
2023-02-28T04:23:20.957Z,-1.75
2023-02-28T04:25:48.011Z,-1.77
2023-02-28T04:28:14.940Z,-1.77
2023-02-28T04:30:41.943Z,-1.79
2023-02-28T04:33:08.952Z,-1.82
2023-02-28T04:35:35.971Z,-1.83
2023-02-28T04:38:03.092Z,-1.83
2023-02-28T04:40:30.126Z,-1.85
2023-02-28T04:42:57.151Z,-1.83
2023-02-28T04:45:24.170Z,-1.85
2023-02-28T04:47:51.137Z,-1.87
2023-02-28T04:50:18.164Z,-1.89
2023-02-28T04:52:45.099Z,-1.89
2023-02-28T04:55:12.028Z,-1.90
2023-02-28T04:57:39.021Z,-1.91
2023-02-28T05:00:12.416Z,-1.91
2023-02-28T05:02:40.516Z,-1.95
2023-02-28T05:05:07.766Z,-1.96
2023-02-28T05:07:34.861Z,-1.98
2023-02-28T05:10:01.846Z,-1.98
2023-02-28T05:12:28.985Z,-2.02
2023-02-28T05:14:56.021Z,-2.07
2023-02-28T05:17:22.987Z,-2.10
2023-02-28T05:19:49.921Z,-2.07
2023-02-28T05:22:17.855Z,-2.11
2023-02-28T05:24:45.081Z,-2.15
2023-02-28T05:27:12.280Z,-2.13
2023-02-28T05:29:43.031Z,-2.19
2023-02-28T05:32:13.999Z,-2.17
2023-02-28T05:34:41.892Z,-2.17
2023-02-28T05:37:16.603Z,-2.20
2023-02-28T05:39:44.011Z,-2.20
2023-02-28T05:42:10.894Z,-2.19
2023-02-28T05:44:38.076Z,-2.20
2023-02-28T05:47:05.199Z,-2.16
2023-02-28T05:49:32.262Z,-2.15
2023-02-28T05:51:59.240Z,-2.14
2023-02-28T05:54:26.220Z,-2.13
2023-02-28T05:56:53.220Z,-2.12
2023-02-28T05:59:20.198Z,-2.11
2023-02-28T06:01:51.045Z,-2.10
2023-02-28T06:04:30.969Z,-2.03
2023-02-28T06:06:59.260Z,-2.01
2023-02-28T06:09:26.200Z,-1.96
2023-02-28T06:11:53.190Z,-1.88
2023-02-28T06:14:21.751Z,-1.86
2023-02-28T06:16:48.884Z,-1.78
2023-02-28T06:19:16.433Z,-1.67
2023-02-28T06:21:44.180Z,-1.60
2023-02-28T06:24:11.463Z,-1.54
2023-02-28T06:26:38.396Z,-1.46
2023-02-28T06:29:05.592Z,-1.40
2023-02-28T06:31:33.176Z,-1.34
2023-02-28T06:34:00.448Z,-1.27
2023-02-28T06:36:27.336Z,-1.22
2023-02-28T06:38:55.615Z,-1.17
2023-02-28T06:41:27.959Z,-1.11
2023-02-28T06:43:55.616Z,-1.07
2023-02-28T06:46:23.089Z,-1.04
2023-02-28T06:48:50.630Z,-1.02
2023-02-28T06:51:25.184Z,-0.97
2023-02-28T06:53:52.552Z,-0.94
2023-02-28T06:56:21.346Z,-0.91
2023-02-28T06:58:50.434Z,-0.88
2023-02-28T07:01:18.148Z,-0.82
2023-02-28T07:03:45.423Z,-0.75
2023-02-28T07:06:12.309Z,-0.74
2023-02-28T07:08:41.046Z,-0.69
2023-02-28T07:11:07.946Z,-0.60
2023-02-28T07:13:35.111Z,-0.57
2023-02-28T07:16:09.854Z,-0.53
2023-02-28T07:18:37.854Z,-0.52
2023-02-28T07:21:08.688Z,-0.45
2023-02-28T07:23:36.319Z,-0.41
2023-02-28T07:26:03.403Z,-0.35
2023-02-28T07:28:30.530Z,-0.26
2023-02-28T07:30:57.821Z,-0.21
2023-02-28T07:33:25.000Z,-0.16
2023-02-28T07:35:52.133Z,-0.07
2023-02-28T07:38:19.493Z,-0.02
2023-02-28T07:40:46.464Z,0.04
2023-02-28T07:43:14.151Z,0.10
2023-02-28T07:45:41.154Z,0.14
2023-02-28T07:48:10.918Z,0.17
2023-02-28T07:50:38.066Z,0.23
2023-02-28T07:53:05.796Z,0.28
2023-02-28T07:55:32.752Z,0.34
2023-02-28T07:58:00.048Z,0.45
2023-02-28T08:00:27.066Z,0.62
2023-02-28T08:02:54.247Z,0.75
2023-02-28T08:05:22.246Z,0.87
2023-02-28T08:07:50.709Z,0.95
2023-02-28T08:10:17.967Z,1.03
2023-02-28T08:12:45.049Z,1.11
2023-02-28T08:15:12.228Z,1.19
2023-02-28T08:17:39.249Z,1.26
2023-02-28T08:20:07.449Z,1.33
2023-02-28T08:22:34.379Z,1.37
2023-02-28T08:25:01.440Z,1.42
2023-02-28T08:27:28.454Z,1.50
2023-02-28T08:29:55.491Z,1.54
2023-02-28T08:32:30.685Z,1.59
2023-02-28T08:34:58.026Z,1.64
2023-02-28T08:37:25.536Z,1.67
2023-02-28T08:39:56.134Z,1.76
2023-02-28T08:42:24.188Z,1.83
2023-02-28T08:44:51.249Z,1.86
2023-02-28T08:47:18.272Z,1.94
2023-02-28T08:49:45.170Z,1.98
2023-02-28T08:52:12.199Z,2.05
2023-02-28T08:54:39.336Z,2.12
2023-02-28T08:57:06.537Z,2.22
2023-02-28T08:59:33.757Z,2.29
2023-02-28T09:02:00.852Z,2.40
2023-02-28T09:04:27.858Z,2.51
2023-02-28T09:06:54.876Z,2.66
2023-02-28T09:09:21.778Z,2.83
2023-02-28T09:11:49.000Z,2.92
2023-02-28T09:14:18.289Z,3.03
2023-02-28T09:16:45.412Z,3.19
2023-02-28T09:19:13.589Z,3.34
2023-02-28T09:21:41.037Z,3.50
2023-02-28T09:24:08.750Z,3.65
2023-02-28T09:26:42.983Z,3.80
2023-02-28T09:29:18.637Z,3.93
2023-02-28T09:31:46.202Z,4.10
2023-02-28T09:34:13.170Z,4.17
2023-02-28T09:36:45.590Z,4.30
2023-02-28T09:39:16.274Z,4.40
2023-02-28T09:41:51.078Z,4.50
2023-02-28T09:44:38.960Z,4.61
2023-02-28T09:47:31.706Z,4.72
2023-02-28T09:50:17.420Z,4.79
2023-02-28T09:52:49.526Z,4.84
2023-02-28T09:55:16.948Z,4.90
2023-02-28T09:57:44.236Z,4.95
2023-02-28T10:00:26.333Z,4.96
2023-02-28T10:03:38.821Z,5.03
2023-02-28T10:06:21.286Z,4.96
2023-02-28T10:09:20.112Z,5.00
2023-02-28T10:14:27.624Z,5.17
2023-02-28T10:17:22.382Z,5.24
2023-02-28T10:20:15.220Z,5.36
2023-02-28T10:23:15.785Z,5.45
2023-02-28T10:25:51.245Z,5.53
2023-02-28T10:28:21.540Z,5.61
2023-02-28T10:30:54.581Z,5.74
2023-02-28T10:33:36.405Z,5.84
2023-02-28T10:36:04.701Z,5.92
2023-02-28T10:38:40.582Z,6.03
2023-02-28T10:41:17.702Z,6.10
2023-02-28T10:43:48.287Z,6.19
2023-02-28T10:46:27.251Z,6.27
2023-02-28T10:49:07.334Z,6.36
2023-02-28T10:51:42.186Z,6.39
2023-02-28T10:54:24.496Z,6.40
2023-02-28T10:57:27.115Z,6.35
2023-02-28T11:00:14.359Z,6.25
2023-02-28T11:02:43.919Z,6.28
2023-02-28T11:05:31.440Z,6.31
2023-02-28T11:08:13.667Z,6.22
2023-02-28T11:10:40.949Z,6.18
2023-02-28T11:13:07.910Z,6.18
2023-02-28T11:15:36.014Z,6.20
2023-02-28T11:18:48.145Z,6.25
2023-02-28T11:21:41.145Z,6.21
2023-02-28T11:24:35.105Z,6.27
2023-02-28T11:27:02.821Z,6.37
2023-02-28T11:29:33.500Z,6.55
2023-02-28T11:32:31.463Z,6.77
2023-02-28T11:35:23.396Z,6.89
2023-02-28T11:37:50.360Z,6.98
2023-02-28T11:40:31.455Z,7.11
2023-02-28T11:43:07.939Z,7.23
2023-02-28T11:45:51.647Z,7.22
2023-02-28T11:49:08.083Z,7.28
2023-02-28T11:51:48.123Z,7.32
2023-02-28T11:54:49.118Z,7.33
2023-02-28T11:57:45.672Z,7.28
2023-02-28T12:00:24.149Z,7.24
2023-02-28T12:03:31.116Z,7.23
2023-02-28T12:06:21.716Z,7.27
2023-02-28T12:08:48.970Z,7.27
2023-02-28T12:12:05.678Z,7.24
2023-02-28T12:15:14.143Z,7.17
2023-02-28T12:18:14.055Z,7.17
2023-02-28T12:20:47.602Z,7.19
2023-02-28T12:23:42.323Z,7.28
2023-02-28T12:26:41.207Z,7.25
2023-02-28T12:29:24.809Z,7.16
2023-02-28T12:32:01.661Z,7.14
2023-02-28T12:34:39.624Z,7.13
2023-02-28T12:37:17.064Z,7.14
2023-02-28T12:39:51.152Z,7.19
2023-02-28T12:42:31.364Z,7.19
2023-02-28T12:45:04.222Z,7.22
2023-02-28T12:47:31.183Z,7.24
2023-02-28T12:50:08.070Z,7.22
2023-02-28T12:52:46.586Z,7.30
2023-02-28T12:55:42.318Z,7.26
2023-02-28T12:58:34.953Z,7.18
2023-02-28T13:01:26.706Z,7.15
2023-02-28T13:04:27.667Z,7.12
2023-02-28T13:07:43.808Z,7.13
2023-02-28T13:10:11.797Z,7.11
2023-02-28T13:12:50.607Z,7.09
2023-02-28T13:15:29.508Z,7.01
2023-02-28T13:18:00.296Z,6.97
2023-02-28T13:20:49.296Z,6.94
2023-02-28T13:23:58.105Z,6.91
2023-02-28T13:26:37.176Z,6.90
2023-02-28T13:29:16.843Z,6.89
2023-02-28T13:32:09.225Z,6.94
2023-02-28T13:34:38.379Z,6.92
2023-02-28T13:37:26.324Z,6.93
2023-02-28T13:40:11.036Z,6.88
2023-02-28T13:42:50.599Z,6.91
2023-02-28T13:45:30.840Z,6.96
2023-02-28T13:48:03.241Z,7.03
2023-02-28T13:50:38.711Z,7.07
2023-02-28T13:53:14.772Z,7.07
2023-02-28T13:56:11.944Z,7.07
2023-02-28T13:59:23.798Z,7.02
2023-02-28T14:02:07.896Z,6.98
2023-02-28T14:04:59.432Z,6.95
2023-02-28T14:07:36.255Z,6.88
2023-02-28T14:10:09.406Z,6.86
2023-02-28T14:12:59.055Z,6.85
2023-02-28T14:15:42.067Z,6.82
2023-02-28T14:18:30.465Z,6.78
2023-02-28T14:21:29.965Z,6.75
2023-02-28T14:24:02.375Z,6.77
2023-02-28T14:26:58.373Z,6.77
2023-02-28T14:29:35.479Z,6.80
2023-02-28T14:32:42.910Z,6.84
2023-02-28T14:35:52.304Z,6.81
2023-02-28T14:38:25.570Z,6.83
2023-02-28T14:40:55.848Z,6.82
2023-02-28T14:43:29.348Z,6.80
2023-02-28T14:46:04.252Z,6.78
2023-02-28T14:48:31.769Z,6.73
2023-02-28T14:51:01.345Z,6.69
2023-02-28T14:53:37.434Z,6.69
2023-02-28T14:56:04.847Z,6.69
2023-02-28T14:58:35.381Z,6.71
2023-02-28T15:01:04.840Z,6.72
2023-02-28T15:03:40.531Z,6.68
2023-02-28T15:06:16.623Z,6.61
2023-02-28T15:08:43.817Z,6.54
2023-02-28T15:11:20.289Z,6.46
2023-02-28T15:13:58.106Z,6.38
2023-02-28T15:16:42.421Z,6.29
2023-02-28T15:19:26.314Z,6.23
2023-02-28T15:22:01.585Z,6.16
2023-02-28T15:24:50.983Z,6.09
2023-02-28T15:27:29.011Z,6.00
2023-02-28T15:30:00.093Z,6.00
2023-02-28T15:32:32.907Z,5.93
2023-02-28T15:35:19.213Z,5.88
2023-02-28T15:37:55.356Z,5.83
2023-02-28T15:40:31.590Z,5.75
2023-02-28T15:43:13.114Z,5.71
2023-02-28T15:45:52.249Z,5.67
2023-02-28T15:48:46.193Z,5.62
2023-02-28T15:51:13.117Z,5.59
2023-02-28T15:53:55.702Z,5.56
2023-02-28T15:56:37.744Z,5.51
2023-02-28T15:59:08.077Z,5.47
2023-02-28T16:01:39.819Z,5.43
2023-02-28T16:04:19.199Z,5.38
2023-02-28T16:06:59.231Z,5.34
2023-02-28T16:09:28.119Z,5.31
2023-02-28T16:11:58.034Z,5.28
2023-02-28T16:14:31.654Z,5.22
2023-02-28T16:17:06.589Z,5.19
2023-02-28T16:19:34.704Z,5.15
2023-02-28T16:22:02.333Z,5.11
2023-02-28T16:24:29.448Z,5.07
2023-02-28T16:26:58.082Z,5.02
2023-02-28T16:29:31.023Z,5.02
2023-02-28T16:31:58.246Z,4.97
2023-02-28T16:34:25.622Z,4.95
2023-02-28T16:36:53.665Z,4.86
2023-02-28T16:39:23.719Z,4.80
2023-02-28T16:41:52.169Z,4.74
2023-02-28T16:44:29.760Z,4.64
2023-02-28T16:46:57.193Z,4.54
2023-02-28T16:49:24.240Z,4.37
2023-02-28T16:51:51.234Z,4.26
2023-02-28T16:54:18.520Z,4.14
2023-02-28T16:56:48.242Z,4.03
2023-02-28T16:59:20.908Z,3.90
2023-02-28T17:01:47.879Z,3.76
2023-02-28T17:04:16.669Z,3.66
2023-02-28T17:06:43.693Z,3.57
2023-02-28T17:09:41.293Z,3.43
2023-02-28T17:12:10.086Z,3.31
2023-02-28T17:14:37.061Z,3.18
2023-02-28T17:17:06.806Z,3.11
2023-02-28T17:19:35.182Z,3.03
2023-02-28T17:22:02.099Z,2.94
2023-02-28T17:24:31.341Z,2.86
2023-02-28T17:26:58.764Z,2.78
2023-02-28T17:29:25.977Z,2.71
2023-02-28T17:31:53.054Z,2.66
2023-02-28T17:34:20.701Z,2.56
2023-02-28T17:36:51.293Z,2.48
2023-02-28T17:39:26.244Z,2.43
2023-02-28T17:41:56.800Z,2.36
2023-02-28T17:44:25.879Z,2.27
2023-02-28T17:46:55.046Z,2.21
2023-02-28T17:49:22.661Z,2.18
2023-02-28T17:51:50.031Z,2.12
2023-02-28T17:54:18.340Z,2.03
2023-02-28T17:56:46.232Z,1.99
2023-02-28T17:59:13.814Z,1.92
2023-02-28T18:01:40.914Z,1.86
2023-02-28T18:04:08.087Z,1.82
2023-02-28T18:06:48.558Z,1.79
2023-02-28T18:09:24.180Z,1.71
2023-02-28T18:11:53.440Z,1.66
2023-02-28T18:14:24.361Z,1.61
2023-02-28T18:16:53.876Z,1.56
2023-02-28T18:19:21.105Z,1.54
2023-02-28T18:21:51.863Z,1.49
2023-02-28T18:24:21.545Z,1.41
2023-02-28T18:26:48.540Z,1.39
2023-02-28T18:29:25.709Z,1.35
2023-02-28T18:31:54.759Z,1.32
2023-02-28T18:34:23.636Z,1.27
2023-02-28T18:36:53.056Z,1.24
2023-02-28T18:39:20.077Z,1.20
2023-02-28T18:41:47.123Z,1.17
2023-02-28T18:44:20.303Z,1.15
2023-02-28T18:46:49.877Z,1.09
2023-02-28T18:49:17.999Z,1.06
2023-02-28T18:51:46.481Z,1.05
2023-02-28T18:54:15.358Z,1.00
2023-02-28T18:56:42.843Z,0.97
2023-02-28T18:59:10.986Z,0.97
2023-02-28T19:01:38.475Z,0.92
2023-02-28T19:04:06.626Z,0.87
2023-02-28T19:06:34.840Z,0.88
2023-02-28T19:09:03.872Z,0.86
2023-02-28T19:11:32.515Z,0.82
2023-02-28T19:13:59.652Z,0.80
2023-02-28T19:16:27.797Z,0.76
2023-02-28T19:18:55.929Z,0.75
2023-02-28T19:21:24.737Z,0.73
2023-02-28T19:23:51.770Z,0.72
2023-02-28T19:26:23.001Z,0.68
2023-02-28T19:28:50.436Z,0.66
2023-02-28T19:31:24.640Z,0.65
2023-02-28T19:33:52.985Z,0.59
2023-02-28T19:36:20.992Z,0.56
2023-02-28T19:38:48.496Z,0.56
2023-02-28T19:41:17.301Z,0.50
2023-02-28T19:43:44.854Z,0.50
2023-02-28T19:46:13.310Z,0.44
2023-02-28T19:48:42.468Z,0.42
2023-02-28T19:51:12.567Z,0.37
2023-02-28T19:53:41.881Z,0.35
2023-02-28T19:56:10.010Z,0.35
2023-02-28T19:58:37.972Z,0.29
2023-02-28T20:01:15.541Z,0.26
2023-02-28T20:03:42.761Z,0.24
2023-02-28T20:06:15.406Z,0.22
2023-02-28T20:08:43.122Z,0.17
2023-02-28T20:11:13.271Z,0.15
2023-02-28T20:13:40.564Z,0.12
2023-02-28T20:16:10.576Z,0.08
2023-02-28T20:18:44.155Z,0.09
2023-02-28T20:21:13.414Z,0.05
2023-02-28T20:23:43.097Z,0.04
2023-02-28T20:26:11.684Z,0.03
2023-02-28T20:28:39.942Z,0.01
2023-02-28T20:31:19.303Z,-0.02
2023-02-28T20:33:47.869Z,-0.03
2023-02-28T20:36:16.075Z,-0.05
2023-02-28T20:38:43.876Z,-0.06
2023-02-28T20:41:11.609Z,-0.10
2023-02-28T20:43:40.416Z,-0.12
2023-02-28T20:46:07.450Z,-0.17
2023-02-28T20:48:38.326Z,-0.18
2023-02-28T20:51:06.063Z,-0.19
2023-02-28T20:53:35.395Z,-0.23
2023-02-28T20:56:18.596Z,-0.23
2023-02-28T20:58:48.256Z,-0.23
2023-02-28T21:01:25.865Z,-0.25
2023-02-28T21:03:56.011Z,-0.26
2023-02-28T21:06:28.437Z,-0.28
2023-02-28T21:08:56.753Z,-0.30
2023-02-28T21:11:30.670Z,-0.34
2023-02-28T21:14:04.464Z,-0.35
2023-02-28T21:16:32.215Z,-0.37
2023-02-28T21:19:05.650Z,-0.38
2023-02-28T21:21:43.859Z,-0.41
2023-02-28T21:24:18.043Z,-0.43
2023-02-28T21:26:45.893Z,-0.43
2023-02-28T21:29:14.142Z,-0.47
2023-02-28T21:31:41.260Z,-0.47
2023-02-28T21:34:10.812Z,-0.45
2023-02-28T21:36:41.519Z,-0.47
2023-02-28T21:39:20.372Z,-0.48
2023-02-28T21:41:47.725Z,-0.45
2023-02-28T21:44:23.806Z,-0.47
2023-02-28T21:46:54.968Z,-0.50
2023-02-28T21:49:22.413Z,-0.47
2023-02-28T21:51:49.435Z,-0.51
2023-02-28T21:54:16.526Z,-0.52
2023-02-28T21:56:43.459Z,-0.52
2023-02-28T21:59:10.883Z,-0.52
2023-02-28T22:01:41.036Z,-0.53
2023-02-28T22:04:12.260Z,-0.55
2023-02-28T22:06:41.302Z,-0.54
2023-02-28T22:09:10.216Z,-0.55
2023-02-28T22:11:38.616Z,-0.56
2023-02-28T22:14:06.963Z,-0.57
2023-02-28T22:16:49.666Z,-0.57
2023-02-28T22:19:18.306Z,-0.58
2023-02-28T22:21:46.849Z,-0.62
2023-02-28T22:24:14.625Z,-0.60
2023-02-28T22:26:41.906Z,-0.66
2023-02-28T22:29:10.506Z,-0.66
2023-02-28T22:31:37.456Z,-0.70
2023-02-28T22:34:08.583Z,-0.72
2023-02-28T22:36:36.329Z,-0.74
2023-02-28T22:39:04.742Z,-0.79
2023-02-28T22:41:32.265Z,-0.79
2023-02-28T22:44:03.991Z,-0.79
2023-02-28T22:46:33.942Z,-0.83
2023-02-28T22:49:05.697Z,-0.84
2023-02-28T22:51:32.960Z,-0.85
2023-02-28T22:53:59.998Z,-0.81
2023-02-28T22:56:29.870Z,-0.81
2023-02-28T22:58:59.288Z,-0.77
2023-02-28T23:01:29.819Z,-0.75
2023-02-28T23:03:57.776Z,-0.75
2023-02-28T23:06:27.190Z,-0.76
2023-02-28T23:08:58.757Z,-0.76
2023-02-28T23:11:30.628Z,-0.75
2023-02-28T23:13:58.622Z,-0.75
2023-02-28T23:16:41.379Z,-0.74
2023-02-28T23:19:23.114Z,-0.76
2023-02-28T23:21:50.893Z,-0.77
2023-02-28T23:24:21.177Z,-0.75
2023-02-28T23:26:51.981Z,-0.75
2023-02-28T23:29:21.502Z,-0.75
2023-02-28T23:31:50.267Z,-0.75
2023-02-28T23:34:24.794Z,-0.76
2023-02-28T23:36:53.309Z,-0.77
2023-02-28T23:39:21.751Z,-0.77
2023-02-28T23:41:49.026Z,-0.79
2023-02-28T23:44:17.200Z,-0.81
2023-02-28T23:46:47.014Z,-0.82
2023-02-28T23:49:16.128Z,-0.83
2023-02-28T23:51:43.169Z,-0.88
2023-02-28T23:54:10.118Z,-0.88
2023-02-28T23:56:37.205Z,-0.90
2023-02-28T23:59:05.166Z,-0.91
